sensor_id;sensor_type;location;lat;lon;timestamp;temperature;humidity
32201;DHT22;18701;45.588;5.288;2023-05-27T00:01:59;19.60;99.90
32201;DHT22;18701;45.588;5.288;2023-05-27T00:04:24;19.60;99.90
32201;DHT22;18701;45.588;5.288;2023-05-27T00:06:50;19.60;99.90
32201;DHT22;18701;45.588;5.288;2023-05-27T00:09:16;19.50;99.90
32201;DHT22;18701;45.588;5.288;2023-05-27T00:11:41;19.50;99.90
32201;DHT22;18701;45.588;5.288;2023-05-27T00:14:07;19.50;99.90
32201;DHT22;18701;45.588;5.288;2023-05-27T00:16:33;19.30;99.90
32201;DHT22;18701;45.588;5.288;2023-05-27T00:19:01;19.30;99.90
32201;DHT22;18701;45.588;5.288;2023-05-27T00:21:27;19.30;99.90
32201;DHT22;18701;45.588;5.288;2023-05-27T00:23:52;19.30;99.90
32201;DHT22;18701;45.588;5.288;2023-05-27T00:26:18;19.30;99.90
32201;DHT22;18701;45.588;5.288;2023-05-27T00:28:44;19.40;99.90
32201;DHT22;18701;45.588;5.288;2023-05-27T00:31:09;19.40;99.90
32201;DHT22;18701;45.588;5.288;2023-05-27T00:33:35;19.30;99.90
32201;DHT22;18701;45.588;5.288;2023-05-27T00:36:01;19.10;99.90
32201;DHT22;18701;45.588;5.288;2023-05-27T00:38:26;19.10;99.90
32201;DHT22;18701;45.588;5.288;2023-05-27T00:40:53;19.10;99.90
32201;DHT22;18701;45.588;5.288;2023-05-27T00:43:19;18.90;99.90
32201;DHT22;18701;45.588;5.288;2023-05-27T00:45:45;18.90;99.90
32201;DHT22;18701;45.588;5.288;2023-05-27T00:48:11;19.00;99.90
32201;DHT22;18701;45.588;5.288;2023-05-27T00:50:37;18.80;99.90
32201;DHT22;18701;45.588;5.288;2023-05-27T00:53:02;18.80;99.90
32201;DHT22;18701;45.588;5.288;2023-05-27T00:55:28;18.90;99.90
32201;DHT22;18701;45.588;5.288;2023-05-27T00:57:54;18.80;99.90
32201;DHT22;18701;45.588;5.288;2023-05-27T01:00:23;18.80;99.90
32201;DHT22;18701;45.588;5.288;2023-05-27T01:02:49;18.60;99.90
32201;DHT22;18701;45.588;5.288;2023-05-27T01:05:16;18.70;99.90
32201;DHT22;18701;45.588;5.288;2023-05-27T01:10:56;18.60;99.90
32201;DHT22;18701;45.588;5.288;2023-05-27T01:13:43;18.70;99.90
32201;DHT22;18701;45.588;5.288;2023-05-27T01:16:13;18.40;99.90
32201;DHT22;18701;45.588;5.288;2023-05-27T01:18:44;18.50;99.90
32201;DHT22;18701;45.588;5.288;2023-05-27T01:21:12;18.50;99.90
32201;DHT22;18701;45.588;5.288;2023-05-27T01:23:41;18.50;99.90
32201;DHT22;18701;45.588;5.288;2023-05-27T01:26:07;18.60;99.90
32201;DHT22;18701;45.588;5.288;2023-05-27T01:28:33;18.60;99.90
32201;DHT22;18701;45.588;5.288;2023-05-27T01:31:16;18.70;99.90
32201;DHT22;18701;45.588;5.288;2023-05-27T01:33:48;18.50;99.90
32201;DHT22;18701;45.588;5.288;2023-05-27T01:36:17;18.50;99.90
32201;DHT22;18701;45.588;5.288;2023-05-27T01:38:46;18.50;99.90
32201;DHT22;18701;45.588;5.288;2023-05-27T01:41:14;18.50;99.90
32201;DHT22;18701;45.588;5.288;2023-05-27T01:43:41;18.40;99.90
32201;DHT22;18701;45.588;5.288;2023-05-27T01:46:07;18.40;99.90
32201;DHT22;18701;45.588;5.288;2023-05-27T01:48:33;18.30;99.90
32201;DHT22;18701;45.588;5.288;2023-05-27T01:50:59;18.20;99.90
32201;DHT22;18701;45.588;5.288;2023-05-27T01:53:24;18.20;99.90
32201;DHT22;18701;45.588;5.288;2023-05-27T01:55:50;18.30;99.90
32201;DHT22;18701;45.588;5.288;2023-05-27T01:58:16;18.30;99.90
32201;DHT22;18701;45.588;5.288;2023-05-27T02:00:41;18.30;99.90
32201;DHT22;18701;45.588;5.288;2023-05-27T02:03:07;18.20;99.90
32201;DHT22;18701;45.588;5.288;2023-05-27T02:05:32;18.20;99.90
32201;DHT22;18701;45.588;5.288;2023-05-27T02:07:58;18.20;99.90
32201;DHT22;18701;45.588;5.288;2023-05-27T02:10:24;18.20;99.90
32201;DHT22;18701;45.588;5.288;2023-05-27T02:12:49;18.20;99.90
32201;DHT22;18701;45.588;5.288;2023-05-27T02:15:15;18.10;99.90
32201;DHT22;18701;45.588;5.288;2023-05-27T02:17:41;18.20;99.90
32201;DHT22;18701;45.588;5.288;2023-05-27T02:20:10;18.10;99.90
32201;DHT22;18701;45.588;5.288;2023-05-27T02:22:36;18.00;99.90
32201;DHT22;18701;45.588;5.288;2023-05-27T02:25:02;17.90;99.90
32201;DHT22;18701;45.588;5.288;2023-05-27T02:27:27;18.00;99.90
32201;DHT22;18701;45.588;5.288;2023-05-27T02:29:53;18.00;99.90
32201;DHT22;18701;45.588;5.288;2023-05-27T02:32:18;17.90;99.90
32201;DHT22;18701;45.588;5.288;2023-05-27T02:34:44;17.90;99.90
32201;DHT22;18701;45.588;5.288;2023-05-27T02:37:10;17.80;99.90
32201;DHT22;18701;45.588;5.288;2023-05-27T02:39:36;17.90;99.90
32201;DHT22;18701;45.588;5.288;2023-05-27T02:42:01;17.80;99.90
32201;DHT22;18701;45.588;5.288;2023-05-27T02:44:28;17.80;99.90
32201;DHT22;18701;45.588;5.288;2023-05-27T02:46:53;17.80;99.90
32201;DHT22;18701;45.588;5.288;2023-05-27T02:49:19;17.90;99.90
32201;DHT22;18701;45.588;5.288;2023-05-27T02:51:45;17.80;99.90
32201;DHT22;18701;45.588;5.288;2023-05-27T02:54:10;17.70;99.90
32201;DHT22;18701;45.588;5.288;2023-05-27T02:56:36;17.60;99.90
32201;DHT22;18701;45.588;5.288;2023-05-27T02:59:01;17.70;99.90
32201;DHT22;18701;45.588;5.288;2023-05-27T03:01:27;17.50;99.90
32201;DHT22;18701;45.588;5.288;2023-05-27T03:03:52;17.60;99.90
32201;DHT22;18701;45.588;5.288;2023-05-27T03:06:18;17.50;99.90
32201;DHT22;18701;45.588;5.288;2023-05-27T03:08:44;17.50;99.90
32201;DHT22;18701;45.588;5.288;2023-05-27T03:11:10;17.60;99.90
32201;DHT22;18701;45.588;5.288;2023-05-27T03:13:36;17.60;99.90
32201;DHT22;18701;45.588;5.288;2023-05-27T03:16:01;17.50;99.90
32201;DHT22;18701;45.588;5.288;2023-05-27T03:18:27;17.50;99.90
32201;DHT22;18701;45.588;5.288;2023-05-27T03:20:52;17.40;99.90
32201;DHT22;18701;45.588;5.288;2023-05-27T03:23:18;17.30;99.90
32201;DHT22;18701;45.588;5.288;2023-05-27T03:25:44;17.40;99.90
32201;DHT22;18701;45.588;5.288;2023-05-27T03:28:10;17.40;99.90
32201;DHT22;18701;45.588;5.288;2023-05-27T03:30:35;17.30;99.90
32201;DHT22;18701;45.588;5.288;2023-05-27T03:33:02;17.30;99.90
32201;DHT22;18701;45.588;5.288;2023-05-27T03:35:28;17.30;99.90
32201;DHT22;18701;45.588;5.288;2023-05-27T03:37:53;17.20;99.90
32201;DHT22;18701;45.588;5.288;2023-05-27T03:40:19;17.10;99.90
32201;DHT22;18701;45.588;5.288;2023-05-27T03:42:44;17.20;99.90
32201;DHT22;18701;45.588;5.288;2023-05-27T03:45:10;17.20;99.90
32201;DHT22;18701;45.588;5.288;2023-05-27T03:47:36;17.20;99.90
32201;DHT22;18701;45.588;5.288;2023-05-27T03:50:02;17.10;99.90
32201;DHT22;18701;45.588;5.288;2023-05-27T03:52:28;17.20;99.90
32201;DHT22;18701;45.588;5.288;2023-05-27T03:54:54;17.10;99.90
32201;DHT22;18701;45.588;5.288;2023-05-27T03:57:19;17.20;99.90
32201;DHT22;18701;45.588;5.288;2023-05-27T03:59:45;17.20;99.90
32201;DHT22;18701;45.588;5.288;2023-05-27T04:02:11;17.20;99.90
32201;DHT22;18701;45.588;5.288;2023-05-27T04:04:37;17.20;99.90
32201;DHT22;18701;45.588;5.288;2023-05-27T04:07:02;17.20;99.90
32201;DHT22;18701;45.588;5.288;2023-05-27T04:09:28;17.10;99.90
32201;DHT22;18701;45.588;5.288;2023-05-27T04:11:54;17.00;99.90
32201;DHT22;18701;45.588;5.288;2023-05-27T04:14:19;17.00;99.90
32201;DHT22;18701;45.588;5.288;2023-05-27T04:16:45;16.90;99.90
32201;DHT22;18701;45.588;5.288;2023-05-27T04:19:11;16.80;99.90
32201;DHT22;18701;45.588;5.288;2023-05-27T04:21:36;16.90;99.90
32201;DHT22;18701;45.588;5.288;2023-05-27T04:24:02;16.80;99.90
32201;DHT22;18701;45.588;5.288;2023-05-27T04:26:28;16.90;99.90
32201;DHT22;18701;45.588;5.288;2023-05-27T04:28:54;16.90;99.90
32201;DHT22;18701;45.588;5.288;2023-05-27T04:31:19;16.90;99.90
32201;DHT22;18701;45.588;5.288;2023-05-27T04:33:45;16.80;99.90
32201;DHT22;18701;45.588;5.288;2023-05-27T04:36:11;16.90;99.90
32201;DHT22;18701;45.588;5.288;2023-05-27T04:38:37;16.70;99.90
32201;DHT22;18701;45.588;5.288;2023-05-27T04:41:03;16.90;99.90
32201;DHT22;18701;45.588;5.288;2023-05-27T04:43:30;16.70;99.90
32201;DHT22;18701;45.588;5.288;2023-05-27T04:45:57;16.80;99.90
32201;DHT22;18701;45.588;5.288;2023-05-27T04:48:24;16.90;99.90
32201;DHT22;18701;45.588;5.288;2023-05-27T04:50:50;17.00;99.90
32201;DHT22;18701;45.588;5.288;2023-05-27T04:53:19;17.10;99.90
32201;DHT22;18701;45.588;5.288;2023-05-27T04:55:44;17.00;99.90
32201;DHT22;18701;45.588;5.288;2023-05-27T04:58:11;17.10;99.90
32201;DHT22;18701;45.588;5.288;2023-05-27T05:00:36;17.10;99.90
32201;DHT22;18701;45.588;5.288;2023-05-27T05:03:18;17.10;99.90
32201;DHT22;18701;45.588;5.288;2023-05-27T05:05:51;17.20;99.90
32201;DHT22;18701;45.588;5.288;2023-05-27T05:08:20;17.20;99.90
32201;DHT22;18701;45.588;5.288;2023-05-27T05:10:47;17.20;99.90
32201;DHT22;18701;45.588;5.288;2023-05-27T05:13:13;17.10;99.90
32201;DHT22;18701;45.588;5.288;2023-05-27T05:15:39;17.10;99.90
32201;DHT22;18701;45.588;5.288;2023-05-27T05:18:05;17.20;99.90
32201;DHT22;18701;45.588;5.288;2023-05-27T05:20:31;17.30;99.90
32201;DHT22;18701;45.588;5.288;2023-05-27T05:22:58;17.30;99.90
32201;DHT22;18701;45.588;5.288;2023-05-27T05:25:23;17.30;99.90
32201;DHT22;18701;45.588;5.288;2023-05-27T05:27:49;17.30;99.90
32201;DHT22;18701;45.588;5.288;2023-05-27T05:30:15;17.30;99.90
32201;DHT22;18701;45.588;5.288;2023-05-27T05:32:40;17.40;99.90
32201;DHT22;18701;45.588;5.288;2023-05-27T05:35:06;17.50;99.90
32201;DHT22;18701;45.588;5.288;2023-05-27T05:37:32;17.50;99.90
32201;DHT22;18701;45.588;5.288;2023-05-27T05:39:57;17.50;99.90
32201;DHT22;18701;45.588;5.288;2023-05-27T05:42:23;17.50;99.90
32201;DHT22;18701;45.588;5.288;2023-05-27T05:44:51;17.50;99.90
32201;DHT22;18701;45.588;5.288;2023-05-27T05:47:17;17.60;99.90
32201;DHT22;18701;45.588;5.288;2023-05-27T05:49:43;17.80;99.90
32201;DHT22;18701;45.588;5.288;2023-05-27T05:52:08;17.80;99.90
32201;DHT22;18701;45.588;5.288;2023-05-27T05:54:34;17.80;99.90
32201;DHT22;18701;45.588;5.288;2023-05-27T05:57:00;17.60;99.90
32201;DHT22;18701;45.588;5.288;2023-05-27T05:59:28;17.80;99.90
32201;DHT22;18701;45.588;5.288;2023-05-27T06:01:53;17.90;99.90
32201;DHT22;18701;45.588;5.288;2023-05-27T06:04:19;17.90;99.90
32201;DHT22;18701;45.588;5.288;2023-05-27T06:06:45;18.00;99.90
32201;DHT22;18701;45.588;5.288;2023-05-27T06:09:11;17.90;99.90
32201;DHT22;18701;45.588;5.288;2023-05-27T06:11:36;18.00;99.90
32201;DHT22;18701;45.588;5.288;2023-05-27T06:14:02;18.10;99.90
32201;DHT22;18701;45.588;5.288;2023-05-27T06:16:28;17.80;99.90
32201;DHT22;18701;45.588;5.288;2023-05-27T06:18:54;18.00;99.90
32201;DHT22;18701;45.588;5.288;2023-05-27T06:21:20;18.10;99.90
32201;DHT22;18701;45.588;5.288;2023-05-27T06:23:45;18.30;99.90
32201;DHT22;18701;45.588;5.288;2023-05-27T06:26:11;18.20;99.90
32201;DHT22;18701;45.588;5.288;2023-05-27T06:28:37;18.30;99.90
32201;DHT22;18701;45.588;5.288;2023-05-27T06:31:02;18.40;99.90
32201;DHT22;18701;45.588;5.288;2023-05-27T06:33:28;18.50;99.90
32201;DHT22;18701;45.588;5.288;2023-05-27T06:35:54;18.40;99.90
32201;DHT22;18701;45.588;5.288;2023-05-27T06:38:19;18.20;99.90
32201;DHT22;18701;45.588;5.288;2023-05-27T06:40:45;18.30;99.90
32201;DHT22;18701;45.588;5.288;2023-05-27T06:43:11;18.30;99.90
32201;DHT22;18701;45.588;5.288;2023-05-27T06:45:37;18.20;99.90
32201;DHT22;18701;45.588;5.288;2023-05-27T06:48:02;18.30;99.90
32201;DHT22;18701;45.588;5.288;2023-05-27T06:50:28;18.50;99.90
32201;DHT22;18701;45.588;5.288;2023-05-27T06:52:54;18.60;99.90
32201;DHT22;18701;45.588;5.288;2023-05-27T06:55:19;18.70;99.90
32201;DHT22;18701;45.588;5.288;2023-05-27T06:57:45;18.50;99.90
32201;DHT22;18701;45.588;5.288;2023-05-27T07:00:11;18.40;99.90
32201;DHT22;18701;45.588;5.288;2023-05-27T07:02:37;18.70;99.90
32201;DHT22;18701;45.588;5.288;2023-05-27T07:05:02;18.70;99.90
32201;DHT22;18701;45.588;5.288;2023-05-27T07:07:28;18.80;99.90
32201;DHT22;18701;45.588;5.288;2023-05-27T07:09:54;18.70;99.90
32201;DHT22;18701;45.588;5.288;2023-05-27T07:12:20;18.70;99.90
32201;DHT22;18701;45.588;5.288;2023-05-27T07:14:46;18.90;99.90
32201;DHT22;18701;45.588;5.288;2023-05-27T07:17:11;18.90;99.90
32201;DHT22;18701;45.588;5.288;2023-05-27T07:19:37;18.90;99.90
32201;DHT22;18701;45.588;5.288;2023-05-27T07:22:03;19.10;99.90
32201;DHT22;18701;45.588;5.288;2023-05-27T07:24:28;19.20;99.90
32201;DHT22;18701;45.588;5.288;2023-05-27T07:26:54;19.10;99.90
32201;DHT22;18701;45.588;5.288;2023-05-27T07:29:20;19.20;99.90
32201;DHT22;18701;45.588;5.288;2023-05-27T07:31:46;19.40;99.90
32201;DHT22;18701;45.588;5.288;2023-05-27T07:34:12;19.30;99.90
32201;DHT22;18701;45.588;5.288;2023-05-27T07:36:38;19.50;99.90
32201;DHT22;18701;45.588;5.288;2023-05-27T07:39:03;19.40;99.90
32201;DHT22;18701;45.588;5.288;2023-05-27T07:41:29;19.30;99.90
32201;DHT22;18701;45.588;5.288;2023-05-27T07:43:55;19.60;99.90
32201;DHT22;18701;45.588;5.288;2023-05-27T07:46:21;19.70;99.90
32201;DHT22;18701;45.588;5.288;2023-05-27T07:48:47;19.80;99.90
32201;DHT22;18701;45.588;5.288;2023-05-27T07:51:13;19.80;99.90
32201;DHT22;18701;45.588;5.288;2023-05-27T07:53:41;19.90;99.90
32201;DHT22;18701;45.588;5.288;2023-05-27T07:56:06;19.80;99.90
32201;DHT22;18701;45.588;5.288;2023-05-27T07:58:32;19.90;99.90
32201;DHT22;18701;45.588;5.288;2023-05-27T08:00:58;19.90;99.90
32201;DHT22;18701;45.588;5.288;2023-05-27T08:03:24;20.00;99.90
32201;DHT22;18701;45.588;5.288;2023-05-27T08:05:50;20.10;99.90
32201;DHT22;18701;45.588;5.288;2023-05-27T08:08:15;20.30;99.90
32201;DHT22;18701;45.588;5.288;2023-05-27T08:10:41;20.40;99.90
32201;DHT22;18701;45.588;5.288;2023-05-27T08:13:06;20.50;99.90
32201;DHT22;18701;45.588;5.288;2023-05-27T08:15:32;20.60;99.90
32201;DHT22;18701;45.588;5.288;2023-05-27T08:17:57;20.50;99.90
32201;DHT22;18701;45.588;5.288;2023-05-27T08:20:23;20.60;99.90
32201;DHT22;18701;45.588;5.288;2023-05-27T08:22:49;20.70;99.90
32201;DHT22;18701;45.588;5.288;2023-05-27T08:25:14;20.80;99.90
32201;DHT22;18701;45.588;5.288;2023-05-27T08:30:12;20.90;99.90
32201;DHT22;18701;45.588;5.288;2023-05-27T08:32:38;21.00;99.90
32201;DHT22;18701;45.588;5.288;2023-05-27T08:35:04;21.00;99.90
32201;DHT22;18701;45.588;5.288;2023-05-27T08:37:30;21.20;99.90
32201;DHT22;18701;45.588;5.288;2023-05-27T08:39:56;21.10;99.90
32201;DHT22;18701;45.588;5.288;2023-05-27T08:42:24;21.20;99.90
32201;DHT22;18701;45.588;5.288;2023-05-27T08:44:50;21.40;99.90
32201;DHT22;18701;45.588;5.288;2023-05-27T08:47:15;21.50;99.90
32201;DHT22;18701;45.588;5.288;2023-05-27T08:49:41;21.70;99.90
32201;DHT22;18701;45.588;5.288;2023-05-27T08:52:09;21.70;99.90
32201;DHT22;18701;45.588;5.288;2023-05-27T08:54:39;21.80;99.90
32201;DHT22;18701;45.588;5.288;2023-05-27T08:57:09;22.00;99.90
32201;DHT22;18701;45.588;5.288;2023-05-27T08:59:37;22.00;99.90
32201;DHT22;18701;45.588;5.288;2023-05-27T09:02:11;22.10;99.90
32201;DHT22;18701;45.588;5.288;2023-05-27T09:04:38;22.10;99.90
32201;DHT22;18701;45.588;5.288;2023-05-27T09:07:05;22.10;99.90
32201;DHT22;18701;45.588;5.288;2023-05-27T09:09:31;22.30;99.90
32201;DHT22;18701;45.588;5.288;2023-05-27T09:12:03;22.20;99.90
32201;DHT22;18701;45.588;5.288;2023-05-27T09:14:29;22.20;99.90
32201;DHT22;18701;45.588;5.288;2023-05-27T09:16:55;22.30;99.90
32201;DHT22;18701;45.588;5.288;2023-05-27T09:19:21;22.50;99.90
32201;DHT22;18701;45.588;5.288;2023-05-27T09:21:51;22.50;99.90
32201;DHT22;18701;45.588;5.288;2023-05-27T09:24:17;22.80;99.90
32201;DHT22;18701;45.588;5.288;2023-05-27T09:26:43;22.90;99.90
32201;DHT22;18701;45.588;5.288;2023-05-27T09:29:09;23.10;99.90
32201;DHT22;18701;45.588;5.288;2023-05-27T09:31:41;23.20;99.90
32201;DHT22;18701;45.588;5.288;2023-05-27T09:36:45;23.10;99.90
32201;DHT22;18701;45.588;5.288;2023-05-27T09:39:12;23.40;99.90
32201;DHT22;18701;45.588;5.288;2023-05-27T09:41:38;23.40;99.90
32201;DHT22;18701;45.588;5.288;2023-05-27T09:44:07;23.60;99.90
32201;DHT22;18701;45.588;5.288;2023-05-27T09:46:34;23.40;99.90
32201;DHT22;18701;45.588;5.288;2023-05-27T09:49:00;23.20;99.90
32201;DHT22;18701;45.588;5.288;2023-05-27T09:51:28;23.40;99.90
32201;DHT22;18701;45.588;5.288;2023-05-27T09:53:54;23.50;99.90
32201;DHT22;18701;45.588;5.288;2023-05-27T09:56:27;23.50;99.90
32201;DHT22;18701;45.588;5.288;2023-05-27T09:58:57;23.50;99.90
32201;DHT22;18701;45.588;5.288;2023-05-27T10:01:28;23.80;99.90
32201;DHT22;18701;45.588;5.288;2023-05-27T10:03:55;23.70;99.90
32201;DHT22;18701;45.588;5.288;2023-05-27T10:06:24;23.50;99.90
32201;DHT22;18701;45.588;5.288;2023-05-27T10:08:51;23.50;99.90
32201;DHT22;18701;45.588;5.288;2023-05-27T10:11:24;23.70;99.90
32201;DHT22;18701;45.588;5.288;2023-05-27T10:13:51;23.90;99.90
32201;DHT22;18701;45.588;5.288;2023-05-27T10:16:21;23.90;99.90
32201;DHT22;18701;45.588;5.288;2023-05-27T10:18:47;23.80;99.90
32201;DHT22;18701;45.588;5.288;2023-05-27T10:21:21;23.90;99.90
32201;DHT22;18701;45.588;5.288;2023-05-27T10:23:59;23.90;99.90
32201;DHT22;18701;45.588;5.288;2023-05-27T10:26:58;24.00;99.90
32201;DHT22;18701;45.588;5.288;2023-05-27T10:29:35;24.20;99.90
32201;DHT22;18701;45.588;5.288;2023-05-27T10:32:04;24.30;99.90
32201;DHT22;18701;45.588;5.288;2023-05-27T10:34:37;24.30;99.90
32201;DHT22;18701;45.588;5.288;2023-05-27T10:37:03;24.40;99.90
32201;DHT22;18701;45.588;5.288;2023-05-27T10:39:29;24.50;99.90
32201;DHT22;18701;45.588;5.288;2023-05-27T10:41:56;24.60;99.90
32201;DHT22;18701;45.588;5.288;2023-05-27T10:44:35;24.70;99.90
32201;DHT22;18701;45.588;5.288;2023-05-27T10:49:36;24.70;99.90
32201;DHT22;18701;45.588;5.288;2023-05-27T10:54:37;24.90;99.90
32201;DHT22;18701;45.588;5.288;2023-05-27T10:57:03;25.00;99.90
32201;DHT22;18701;45.588;5.288;2023-05-27T11:02:12;25.00;99.90
32201;DHT22;18701;45.588;5.288;2023-05-27T11:04:38;25.40;99.90
32201;DHT22;18701;45.588;5.288;2023-05-27T11:07:04;25.60;99.90
32201;DHT22;18701;45.588;5.288;2023-05-27T11:09:46;25.60;99.90
32201;DHT22;18701;45.588;5.288;2023-05-27T11:12:17;25.40;99.90
32201;DHT22;18701;45.588;5.288;2023-05-27T11:14:56;25.30;99.90
32201;DHT22;18701;45.588;5.288;2023-05-27T11:17:22;25.50;99.90
32201;DHT22;18701;45.588;5.288;2023-05-27T11:19:48;25.70;99.90
32201;DHT22;18701;45.588;5.288;2023-05-27T11:22:16;25.80;99.90
32201;DHT22;18701;45.588;5.288;2023-05-27T11:24:43;26.00;99.90
32201;DHT22;18701;45.588;5.288;2023-05-27T11:27:13;26.10;99.90
32201;DHT22;18701;45.588;5.288;2023-05-27T11:29:40;26.20;99.90
32201;DHT22;18701;45.588;5.288;2023-05-27T11:32:16;26.30;99.90
32201;DHT22;18701;45.588;5.288;2023-05-27T11:34:46;26.30;99.90
32201;DHT22;18701;45.588;5.288;2023-05-27T11:37:12;26.50;99.90
32201;DHT22;18701;45.588;5.288;2023-05-27T11:39:52;26.30;99.90
32201;DHT22;18701;45.588;5.288;2023-05-27T11:42:22;26.00;99.90
32201;DHT22;18701;45.588;5.288;2023-05-27T11:44:52;26.30;99.90
32201;DHT22;18701;45.588;5.288;2023-05-27T11:47:18;26.40;99.90
32201;DHT22;18701;45.588;5.288;2023-05-27T11:49:49;26.30;99.90
32201;DHT22;18701;45.588;5.288;2023-05-27T11:52:14;26.50;99.90
32201;DHT22;18701;45.588;5.288;2023-05-27T11:54:40;26.50;99.90
32201;DHT22;18701;45.588;5.288;2023-05-27T11:57:06;26.60;99.90
32201;DHT22;18701;45.588;5.288;2023-05-27T11:59:33;26.50;99.90
32201;DHT22;18701;45.588;5.288;2023-05-27T12:02:00;26.70;99.90
32201;DHT22;18701;45.588;5.288;2023-05-27T12:04:25;26.90;99.90
32201;DHT22;18701;45.588;5.288;2023-05-27T12:06:51;26.90;99.90
32201;DHT22;18701;45.588;5.288;2023-05-27T12:09:17;27.00;99.90
32201;DHT22;18701;45.588;5.288;2023-05-27T12:11:42;26.80;99.90
32201;DHT22;18701;45.588;5.288;2023-05-27T12:14:08;27.20;99.90
32201;DHT22;18701;45.588;5.288;2023-05-27T12:16:34;27.20;99.90
32201;DHT22;18701;45.588;5.288;2023-05-27T12:18:59;27.20;99.90
32201;DHT22;18701;45.588;5.288;2023-05-27T12:21:25;27.30;99.90
32201;DHT22;18701;45.588;5.288;2023-05-27T12:23:51;27.40;99.90
32201;DHT22;18701;45.588;5.288;2023-05-27T12:26:17;27.30;99.90
32201;DHT22;18701;45.588;5.288;2023-05-27T12:28:43;27.70;99.90
32201;DHT22;18701;45.588;5.288;2023-05-27T12:31:09;27.80;99.90
32201;DHT22;18701;45.588;5.288;2023-05-27T12:33:35;27.80;99.90
32201;DHT22;18701;45.588;5.288;2023-05-27T12:36:01;27.90;99.90
32201;DHT22;18701;45.588;5.288;2023-05-27T12:38:27;27.30;99.90
32201;DHT22;18701;45.588;5.288;2023-05-27T12:40:53;27.50;99.90
32201;DHT22;18701;45.588;5.288;2023-05-27T12:43:21;27.80;99.90
32201;DHT22;18701;45.588;5.288;2023-05-27T12:45:46;28.00;99.90
32201;DHT22;18701;45.588;5.288;2023-05-27T12:48:13;27.70;99.90
32201;DHT22;18701;45.588;5.288;2023-05-27T12:50:39;27.60;99.90
32201;DHT22;18701;45.588;5.288;2023-05-27T12:53:04;27.80;99.90
32201;DHT22;18701;45.588;5.288;2023-05-27T12:55:30;27.90;99.90
32201;DHT22;18701;45.588;5.288;2023-05-27T12:57:56;27.90;99.90
32201;DHT22;18701;45.588;5.288;2023-05-27T13:00:22;28.10;99.90
32201;DHT22;18701;45.588;5.288;2023-05-27T13:02:48;28.20;99.90
32201;DHT22;18701;45.588;5.288;2023-05-27T13:05:14;28.10;99.90
32201;DHT22;18701;45.588;5.288;2023-05-27T13:07:40;28.00;99.90
32201;DHT22;18701;45.588;5.288;2023-05-27T13:10:11;28.20;99.90
32201;DHT22;18701;45.588;5.288;2023-05-27T13:12:37;28.20;99.90
32201;DHT22;18701;45.588;5.288;2023-05-27T13:15:03;28.00;99.90
32201;DHT22;18701;45.588;5.288;2023-05-27T13:17:29;28.40;99.90
32201;DHT22;18701;45.588;5.288;2023-05-27T13:19:55;28.40;99.90
32201;DHT22;18701;45.588;5.288;2023-05-27T13:22:21;28.00;99.90
32201;DHT22;18701;45.588;5.288;2023-05-27T13:24:46;28.00;99.90
32201;DHT22;18701;45.588;5.288;2023-05-27T13:27:12;28.40;99.90
32201;DHT22;18701;45.588;5.288;2023-05-27T13:29:40;28.20;99.90
32201;DHT22;18701;45.588;5.288;2023-05-27T13:32:05;28.40;99.90
32201;DHT22;18701;45.588;5.288;2023-05-27T13:34:31;28.60;99.90
32201;DHT22;18701;45.588;5.288;2023-05-27T13:36:57;28.70;99.90
32201;DHT22;18701;45.588;5.288;2023-05-27T13:39:23;28.50;99.90
32201;DHT22;18701;45.588;5.288;2023-05-27T13:41:48;28.70;99.90
32201;DHT22;18701;45.588;5.288;2023-05-27T13:44:14;28.70;99.90
32201;DHT22;18701;45.588;5.288;2023-05-27T13:46:40;28.70;99.90
32201;DHT22;18701;45.588;5.288;2023-05-27T13:49:07;28.50;99.90
32201;DHT22;18701;45.588;5.288;2023-05-27T13:51:33;28.70;99.90
32201;DHT22;18701;45.588;5.288;2023-05-27T13:53:59;29.00;99.90
32201;DHT22;18701;45.588;5.288;2023-05-27T13:56:25;29.00;99.90
32201;DHT22;18701;45.588;5.288;2023-05-27T13:58:52;29.60;99.90
32201;DHT22;18701;45.588;5.288;2023-05-27T14:01:20;29.00;99.90
32201;DHT22;18701;45.588;5.288;2023-05-27T14:03:47;29.70;99.90
32201;DHT22;18701;45.588;5.288;2023-05-27T14:06:12;29.70;99.50
32201;DHT22;18701;45.588;5.288;2023-05-27T14:08:38;29.40;99.90
32201;DHT22;18701;45.588;5.288;2023-05-27T14:11:04;29.20;99.90
32201;DHT22;18701;45.588;5.288;2023-05-27T14:13:29;29.00;99.90
32201;DHT22;18701;45.588;5.288;2023-05-27T14:15:55;29.00;99.60
32201;DHT22;18701;45.588;5.288;2023-05-27T14:18:20;29.10;99.70
32201;DHT22;18701;45.588;5.288;2023-05-27T14:20:47;28.80;99.50
32201;DHT22;18701;45.588;5.288;2023-05-27T14:23:12;29.20;98.80
32201;DHT22;18701;45.588;5.288;2023-05-27T14:25:39;29.70;97.90
32201;DHT22;18701;45.588;5.288;2023-05-27T14:28:05;29.50;98.10
32201;DHT22;18701;45.588;5.288;2023-05-27T14:30:32;29.50;98.00
32201;DHT22;18701;45.588;5.288;2023-05-27T14:33:05;29.30;98.10
32201;DHT22;18701;45.588;5.288;2023-05-27T14:35:38;29.40;98.20
32201;DHT22;18701;45.588;5.288;2023-05-27T14:38:04;29.70;99.50
32201;DHT22;18701;45.588;5.288;2023-05-27T14:40:30;29.60;98.30
32201;DHT22;18701;45.588;5.288;2023-05-27T14:42:57;30.30;99.40
32201;DHT22;18701;45.588;5.288;2023-05-27T14:45:22;30.70;99.00
32201;DHT22;18701;45.588;5.288;2023-05-27T14:47:49;30.40;97.10
32201;DHT22;18701;45.588;5.288;2023-05-27T14:50:19;30.10;97.20
32201;DHT22;18701;45.588;5.288;2023-05-27T14:52:45;30.60;97.30
32201;DHT22;18701;45.588;5.288;2023-05-27T14:55:11;30.00;97.10
32201;DHT22;18701;45.588;5.288;2023-05-27T14:57:36;29.80;96.60
32201;DHT22;18701;45.588;5.288;2023-05-27T15:00:03;29.40;96.40
32201;DHT22;18701;45.588;5.288;2023-05-27T15:02:31;29.80;96.90
32201;DHT22;18701;45.588;5.288;2023-05-27T15:04:56;30.10;96.10
32201;DHT22;18701;45.588;5.288;2023-05-27T15:07:22;30.10;96.30
32201;DHT22;18701;45.588;5.288;2023-05-27T15:09:48;29.70;95.40
32201;DHT22;18701;45.588;5.288;2023-05-27T15:12:14;30.10;95.10
32201;DHT22;18701;45.588;5.288;2023-05-27T15:14:40;30.10;96.00
32201;DHT22;18701;45.588;5.288;2023-05-27T15:17:06;29.50;96.10
32201;DHT22;18701;45.588;5.288;2023-05-27T15:19:39;29.70;96.20
32201;DHT22;18701;45.588;5.288;2023-05-27T15:22:05;30.00;96.10
32201;DHT22;18701;45.588;5.288;2023-05-27T15:24:34;30.40;96.40
32201;DHT22;18701;45.588;5.288;2023-05-27T15:27:00;30.10;96.20
32201;DHT22;18701;45.588;5.288;2023-05-27T15:29:28;29.50;96.50
32201;DHT22;18701;45.588;5.288;2023-05-27T15:31:53;29.60;96.60
32201;DHT22;18701;45.588;5.288;2023-05-27T15:34:19;29.90;96.90
32201;DHT22;18701;45.588;5.288;2023-05-27T15:36:44;29.90;96.70
32201;DHT22;18701;45.588;5.288;2023-05-27T15:39:10;30.10;96.50
32201;DHT22;18701;45.588;5.288;2023-05-27T15:41:36;30.30;96.20
32201;DHT22;18701;45.588;5.288;2023-05-27T15:44:02;30.20;96.20